sensor_id;sensor_type;location;lat;lon;timestamp;P1;durP1;ratioP1;P2;durP2;ratioP2
46000;SDS011;72226;48.272;11.180;2024-02-21T00:00:45;6.70;;;2.35;;
46000;SDS011;72226;48.272;11.180;2024-02-21T00:03:10;6.70;;;2.17;;
46000;SDS011;72226;48.272;11.180;2024-02-21T00:05:35;4.57;;;1.85;;
46000;SDS011;72226;48.272;11.180;2024-02-21T00:08:01;4.32;;;2.47;;
46000;SDS011;72226;48.272;11.180;2024-02-21T00:10:28;2.72;;;1.83;;
46000;SDS011;72226;48.272;11.180;2024-02-21T00:12:53;9.10;;;3.08;;
46000;SDS011;72226;48.272;11.180;2024-02-21T00:15:19;7.55;;;2.42;;
46000;SDS011;72226;48.272;11.180;2024-02-21T00:17:44;13.55;;;2.55;;
46000;SDS011;72226;48.272;11.180;2024-02-21T00:20:09;4.63;;;1.77;;
46000;SDS011;72226;48.272;11.180;2024-02-21T00:22:35;3.53;;;1.67;;
46000;SDS011;72226;48.272;11.180;2024-02-21T00:25:00;10.55;;;2.38;;
46000;SDS011;72226;48.272;11.180;2024-02-21T00:27:25;3.78;;;2.35;;
46000;SDS011;72226;48.272;11.180;2024-02-21T00:29:51;6.03;;;1.83;;
46000;SDS011;72226;48.272;11.180;2024-02-21T00:32:16;5.97;;;1.83;;
46000;SDS011;72226;48.272;11.180;2024-02-21T00:34:41;5.10;;;2.28;;
46000;SDS011;72226;48.272;11.180;2024-02-21T00:37:06;3.88;;;2.08;;
46000;SDS011;72226;48.272;11.180;2024-02-21T00:39:32;7.35;;;2.25;;
46000;SDS011;72226;48.272;11.180;2024-02-21T00:41:57;6.53;;;2.08;;
46000;SDS011;72226;48.272;11.180;2024-02-21T00:44:22;7.40;;;1.83;;
46000;SDS011;72226;48.272;11.180;2024-02-21T00:46:47;4.90;;;2.45;;
46000;SDS011;72226;48.272;11.180;2024-02-21T00:49:12;3.92;;;1.77;;
46000;SDS011;72226;48.272;11.180;2024-02-21T00:51:38;3.65;;;2.38;;
46000;SDS011;72226;48.272;11.180;2024-02-21T00:54:03;3.35;;;2.05;;
46000;SDS011;72226;48.272;11.180;2024-02-21T00:56:28;3.03;;;1.70;;
46000;SDS011;72226;48.272;11.180;2024-02-21T00:58:54;5.22;;;1.52;;
46000;SDS011;72226;48.272;11.180;2024-02-21T01:01:26;10.95;;;3.03;;
46000;SDS011;72226;48.272;11.180;2024-02-21T01:03:51;2.45;;;1.83;;
46000;SDS011;72226;48.272;11.180;2024-02-21T01:06:18;4.28;;;2.10;;
46000;SDS011;72226;48.272;11.180;2024-02-21T01:08:43;4.25;;;2.05;;
46000;SDS011;72226;48.272;11.180;2024-02-21T01:11:09;5.28;;;1.60;;
46000;SDS011;72226;48.272;11.180;2024-02-21T01:13:34;8.48;;;2.13;;
46000;SDS011;72226;48.272;11.180;2024-02-21T01:15:59;2.95;;;1.98;;
46000;SDS011;72226;48.272;11.180;2024-02-21T01:18:24;10.73;;;2.45;;
46000;SDS011;72226;48.272;11.180;2024-02-21T01:20:50;2.63;;;1.30;;
46000;SDS011;72226;48.272;11.180;2024-02-21T01:23:15;6.25;;;1.60;;
46000;SDS011;72226;48.272;11.180;2024-02-21T01:25:40;4.00;;;1.88;;
46000;SDS011;72226;48.272;11.180;2024-02-21T01:28:05;7.50;;;2.55;;
46000;SDS011;72226;48.272;11.180;2024-02-21T01:30:31;5.32;;;1.75;;
46000;SDS011;72226;48.272;11.180;2024-02-21T01:32:56;8.80;;;1.83;;
46000;SDS011;72226;48.272;11.180;2024-02-21T01:35:21;3.42;;;2.33;;
46000;SDS011;72226;48.272;11.180;2024-02-21T01:37:46;4.28;;;2.13;;
46000;SDS011;72226;48.272;11.180;2024-02-21T01:40:12;6.18;;;2.13;;
46000;SDS011;72226;48.272;11.180;2024-02-21T01:42:40;5.05;;;2.03;;
46000;SDS011;72226;48.272;11.180;2024-02-21T01:45:08;4.65;;;2.25;;
46000;SDS011;72226;48.272;11.180;2024-02-21T01:47:34;3.72;;;1.75;;
46000;SDS011;72226;48.272;11.180;2024-02-21T01:49:59;5.68;;;2.13;;
46000;SDS011;72226;48.272;11.180;2024-02-21T01:52:26;5.90;;;2.33;;
46000;SDS011;72226;48.272;11.180;2024-02-21T01:54:52;5.57;;;2.10;;
46000;SDS011;72226;48.272;11.180;2024-02-21T01:57:17;5.03;;;1.58;;
46000;SDS011;72226;48.272;11.180;2024-02-21T01:59:43;4.72;;;2.15;;
46000;SDS011;72226;48.272;11.180;2024-02-21T02:02:08;5.03;;;1.88;;
46000;SDS011;72226;48.272;11.180;2024-02-21T02:04:33;3.25;;;1.55;;
46000;SDS011;72226;48.272;11.180;2024-02-21T02:06:59;8.70;;;2.60;;
46000;SDS011;72226;48.272;11.180;2024-02-21T02:09:27;10.98;;;1.83;;
46000;SDS011;72226;48.272;11.180;2024-02-21T02:11:52;5.40;;;2.03;;
46000;SDS011;72226;48.272;11.180;2024-02-21T02:14:17;2.20;;;1.60;;
46000;SDS011;72226;48.272;11.180;2024-02-21T02:16:45;4.57;;;1.50;;
46000;SDS011;72226;48.272;11.180;2024-02-21T02:19:11;6.70;;;2.17;;
46000;SDS011;72226;48.272;11.180;2024-02-21T02:21:39;2.75;;;1.17;;
46000;SDS011;72226;48.272;11.180;2024-02-21T02:24:05;3.92;;;1.85;;
46000;SDS011;72226;48.272;11.180;2024-02-21T02:26:30;3.47;;;1.88;;
46000;SDS011;72226;48.272;11.180;2024-02-21T02:28:55;4.80;;;1.38;;
46000;SDS011;72226;48.272;11.180;2024-02-21T02:31:20;5.10;;;1.98;;
46000;SDS011;72226;48.272;11.180;2024-02-21T02:33:46;6.85;;;2.08;;
46000;SDS011;72226;48.272;11.180;2024-02-21T02:36:11;2.85;;;1.70;;
46000;SDS011;72226;48.272;11.180;2024-02-21T02:38:36;3.47;;;1.33;;
46000;SDS011;72226;48.272;11.180;2024-02-21T02:41:02;3.03;;;1.67;;
46000;SDS011;72226;48.272;11.180;2024-02-21T02:43:27;1.15;;;0.95;;
46000;SDS011;72226;48.272;11.180;2024-02-21T02:45:52;4.22;;;1.27;;
46000;SDS011;72226;48.272;11.180;2024-02-21T02:48:18;3.72;;;1.60;;
46000;SDS011;72226;48.272;11.180;2024-02-21T02:50:44;6.30;;;1.75;;
46000;SDS011;72226;48.272;11.180;2024-02-21T02:53:10;3.42;;;1.40;;
46000;SDS011;72226;48.272;11.180;2024-02-21T02:55:36;3.45;;;1.08;;
46000;SDS011;72226;48.272;11.180;2024-02-21T02:58:01;3.30;;;1.60;;
46000;SDS011;72226;48.272;11.180;2024-02-21T03:00:26;5.85;;;1.55;;
46000;SDS011;72226;48.272;11.180;2024-02-21T03:02:52;4.90;;;1.38;;
46000;SDS011;72226;48.272;11.180;2024-02-21T03:05:18;6.15;;;1.73;;
46000;SDS011;72226;48.272;11.180;2024-02-21T03:07:43;1.70;;;1.00;;
46000;SDS011;72226;48.272;11.180;2024-02-21T03:10:09;4.18;;;1.40;;
46000;SDS011;72226;48.272;11.180;2024-02-21T03:12:34;3.75;;;1.85;;
46000;SDS011;72226;48.272;11.180;2024-02-21T03:15:00;3.05;;;1.27;;
46000;SDS011;72226;48.272;11.180;2024-02-21T03:17:25;8.35;;;2.53;;
46000;SDS011;72226;48.272;11.180;2024-02-21T03:19:52;3.42;;;1.50;;
46000;SDS011;72226;48.272;11.180;2024-02-21T03:22:17;2.35;;;1.40;;
46000;SDS011;72226;48.272;11.180;2024-02-21T03:24:42;3.15;;;1.63;;
46000;SDS011;72226;48.272;11.180;2024-02-21T03:27:08;2.72;;;1.80;;
46000;SDS011;72226;48.272;11.180;2024-02-21T03:29:33;4.40;;;1.92;;
46000;SDS011;72226;48.272;11.180;2024-02-21T03:31:59;4.32;;;1.88;;
46000;SDS011;72226;48.272;11.180;2024-02-21T03:34:24;12.35;;;2.53;;
46000;SDS011;72226;48.272;11.180;2024-02-21T03:36:49;2.50;;;1.98;;
46000;SDS011;72226;48.272;11.180;2024-02-21T03:39:14;3.17;;;1.75;;
46000;SDS011;72226;48.272;11.180;2024-02-21T03:41:39;3.08;;;1.27;;
46000;SDS011;72226;48.272;11.180;2024-02-21T03:44:05;4.07;;;1.30;;
46000;SDS011;72226;48.272;11.180;2024-02-21T03:46:30;2.95;;;1.60;;
46000;SDS011;72226;48.272;11.180;2024-02-21T03:48:56;4.20;;;1.95;;
46000;SDS011;72226;48.272;11.180;2024-02-21T03:51:22;3.50;;;1.15;;
46000;SDS011;72226;48.272;11.180;2024-02-21T03:53:47;6.05;;;1.92;;
46000;SDS011;72226;48.272;11.180;2024-02-21T03:56:12;5.28;;;1.83;;
46000;SDS011;72226;48.272;11.180;2024-02-21T03:58:37;3.35;;;1.17;;
46000;SDS011;72226;48.272;11.180;2024-02-21T04:01:03;7.15;;;1.83;;
46000;SDS011;72226;48.272;11.180;2024-02-21T04:03:28;3.30;;;1.67;;
46000;SDS011;72226;48.272;11.180;2024-02-21T04:05:54;2.58;;;1.33;;
46000;SDS011;72226;48.272;11.180;2024-02-21T04:08:19;3.40;;;1.08;;
46000;SDS011;72226;48.272;11.180;2024-02-21T04:10:44;4.72;;;1.40;;
46000;SDS011;72226;48.272;11.180;2024-02-21T04:13:09;3.55;;;1.25;;
46000;SDS011;72226;48.272;11.180;2024-02-21T04:15:35;2.92;;;1.35;;
46000;SDS011;72226;48.272;11.180;2024-02-21T04:18:00;4.30;;;2.08;;
46000;SDS011;72226;48.272;11.180;2024-02-21T04:20:26;4.43;;;1.30;;
46000;SDS011;72226;48.272;11.180;2024-02-21T04:22:51;4.15;;;1.55;;
46000;SDS011;72226;48.272;11.180;2024-02-21T04:25:16;6.10;;;1.85;;
46000;SDS011;72226;48.272;11.180;2024-02-21T04:27:41;1.83;;;1.30;;
46000;SDS011;72226;48.272;11.180;2024-02-21T04:30:07;1.85;;;0.77;;
46000;SDS011;72226;48.272;11.180;2024-02-21T04:32:32;4.15;;;1.02;;
46000;SDS011;72226;48.272;11.180;2024-02-21T04:34:57;6.10;;;1.13;;
46000;SDS011;72226;48.272;11.180;2024-02-21T04:37:23;3.63;;;1.40;;
46000;SDS011;72226;48.272;11.180;2024-02-21T04:39:48;2.20;;;1.42;;
46000;SDS011;72226;48.272;11.180;2024-02-21T04:42:14;3.13;;;1.10;;
46000;SDS011;72226;48.272;11.180;2024-02-21T04:44:40;2.65;;;0.80;;
46000;SDS011;72226;48.272;11.180;2024-02-21T04:47:05;1.75;;;1.10;;
46000;SDS011;72226;48.272;11.180;2024-02-21T04:49:30;2.05;;;1.17;;
46000;SDS011;72226;48.272;11.180;2024-02-21T04:51:55;2.60;;;1.38;;
46000;SDS011;72226;48.272;11.180;2024-02-21T04:54:20;2.40;;;1.17;;
46000;SDS011;72226;48.272;11.180;2024-02-21T04:56:46;2.40;;;1.08;;
46000;SDS011;72226;48.272;11.180;2024-02-21T04:59:11;3.17;;;0.95;;
46000;SDS011;72226;48.272;11.180;2024-02-21T05:01:36;2.40;;;1.25;;
46000;SDS011;72226;48.272;11.180;2024-02-21T05:04:01;4.38;;;0.98;;
46000;SDS011;72226;48.272;11.180;2024-02-21T05:06:27;1.52;;;0.80;;
46000;SDS011;72226;48.272;11.180;2024-02-21T05:08:53;4.57;;;1.30;;
46000;SDS011;72226;48.272;11.180;2024-02-21T05:11:18;2.72;;;0.90;;
46000;SDS011;72226;48.272;11.180;2024-02-21T05:13:43;1.02;;;0.90;;
46000;SDS011;72226;48.272;11.180;2024-02-21T05:16:08;7.57;;;1.27;;
46000;SDS011;72226;48.272;11.180;2024-02-21T05:18:33;2.33;;;1.05;;
46000;SDS011;72226;48.272;11.180;2024-02-21T05:20:59;5.40;;;1.15;;
46000;SDS011;72226;48.272;11.180;2024-02-21T05:23:24;2.50;;;1.10;;
46000;SDS011;72226;48.272;11.180;2024-02-21T05:25:50;2.80;;;0.73;;
46000;SDS011;72226;48.272;11.180;2024-02-21T05:28:16;2.17;;;1.10;;
46000;SDS011;72226;48.272;11.180;2024-02-21T05:30:41;5.35;;;1.75;;
46000;SDS011;72226;48.272;11.180;2024-02-21T05:33:08;2.70;;;0.82;;
46000;SDS011;72226;48.272;11.180;2024-02-21T05:35:35;1.42;;;0.77;;
46000;SDS011;72226;48.272;11.180;2024-02-21T05:38:00;2.78;;;1.00;;
46000;SDS011;72226;48.272;11.180;2024-02-21T05:40:25;5.80;;;1.42;;
46000;SDS011;72226;48.272;11.180;2024-02-21T05:42:51;3.22;;;1.20;;
46000;SDS011;72226;48.272;11.180;2024-02-21T05:45:17;3.65;;;2.08;;
46000;SDS011;72226;48.272;11.180;2024-02-21T05:47:42;5.35;;;1.80;;
46000;SDS011;72226;48.272;11.180;2024-02-21T05:50:07;4.25;;;1.15;;
46000;SDS011;72226;48.272;11.180;2024-02-21T05:52:33;2.10;;;1.13;;
46000;SDS011;72226;48.272;11.180;2024-02-21T05:54:58;1.50;;;1.05;;
46000;SDS011;72226;48.272;11.180;2024-02-21T05:57:24;1.05;;;0.93;;
46000;SDS011;72226;48.272;11.180;2024-02-21T05:59:49;2.08;;;1.00;;
46000;SDS011;72226;48.272;11.180;2024-02-21T06:02:14;3.35;;;0.75;;
46000;SDS011;72226;48.272;11.180;2024-02-21T06:04:39;2.25;;;1.05;;
46000;SDS011;72226;48.272;11.180;2024-02-21T06:07:05;2.47;;;1.23;;
46000;SDS011;72226;48.272;11.180;2024-02-21T06:09:30;1.15;;;0.80;;
46000;SDS011;72226;48.272;11.180;2024-02-21T06:11:55;1.27;;;1.02;;
46000;SDS011;72226;48.272;11.180;2024-02-21T06:14:20;3.78;;;1.25;;
46000;SDS011;72226;48.272;11.180;2024-02-21T06:16:46;2.10;;;1.00;;
46000;SDS011;72226;48.272;11.180;2024-02-21T06:19:11;3.50;;;1.40;;
46000;SDS011;72226;48.272;11.180;2024-02-21T06:21:36;2.75;;;1.40;;
46000;SDS011;72226;48.272;11.180;2024-02-21T06:24:02;2.35;;;0.95;;
46000;SDS011;72226;48.272;11.180;2024-02-21T06:26:27;2.38;;;1.05;;
46000;SDS011;72226;48.272;11.180;2024-02-21T06:28:52;2.90;;;1.17;;
46000;SDS011;72226;48.272;11.180;2024-02-21T06:31:17;2.30;;;1.38;;
46000;SDS011;72226;48.272;11.180;2024-02-21T06:33:43;1.23;;;0.75;;
46000;SDS011;72226;48.272;11.180;2024-02-21T06:36:08;2.15;;;1.05;;
46000;SDS011;72226;48.272;11.180;2024-02-21T06:38:33;2.10;;;0.95;;
46000;SDS011;72226;48.272;11.180;2024-02-21T06:40:59;2.40;;;0.95;;
46000;SDS011;72226;48.272;11.180;2024-02-21T06:43:25;2.42;;;0.70;;
46000;SDS011;72226;48.272;11.180;2024-02-21T06:45:51;2.65;;;0.70;;
46000;SDS011;72226;48.272;11.180;2024-02-21T06:48:16;0.77;;;0.60;;
46000;SDS011;72226;48.272;11.180;2024-02-21T06:50:42;1.08;;;0.70;;
46000;SDS011;72226;48.272;11.180;2024-02-21T06:53:07;2.35;;;1.35;;
46000;SDS011;72226;48.272;11.180;2024-02-21T06:55:32;1.50;;;0.98;;
46000;SDS011;72226;48.272;11.180;2024-02-21T06:57:57;2.47;;;0.82;;
46000;SDS011;72226;48.272;11.180;2024-02-21T07:00:22;2.05;;;0.75;;
46000;SDS011;72226;48.272;11.180;2024-02-21T07:02:48;1.65;;;0.82;;
46000;SDS011;72226;48.272;11.180;2024-02-21T07:05:13;2.40;;;0.85;;
46000;SDS011;72226;48.272;11.180;2024-02-21T07:07:38;1.67;;;1.05;;
46000;SDS011;72226;48.272;11.180;2024-02-21T07:10:05;3.10;;;0.85;;
46000;SDS011;72226;48.272;11.180;2024-02-21T07:12:30;2.00;;;0.98;;
46000;SDS011;72226;48.272;11.180;2024-02-21T07:14:56;2.08;;;1.33;;
46000;SDS011;72226;48.272;11.180;2024-02-21T07:17:21;1.35;;;0.55;;
46000;SDS011;72226;48.272;11.180;2024-02-21T07:19:46;1.40;;;0.50;;
46000;SDS011;72226;48.272;11.180;2024-02-21T07:22:11;1.38;;;0.47;;
46000;SDS011;72226;48.272;11.180;2024-02-21T07:24:37;0.75;;;0.50;;
46000;SDS011;72226;48.272;11.180;2024-02-21T07:27:02;2.17;;;0.60;;
46000;SDS011;72226;48.272;11.180;2024-02-21T07:29:29;1.20;;;0.40;;
46000;SDS011;72226;48.272;11.180;2024-02-21T07:31:55;3.47;;;1.38;;
46000;SDS011;72226;48.272;11.180;2024-02-21T07:34:20;0.88;;;0.65;;
46000;SDS011;72226;48.272;11.180;2024-02-21T07:36:45;4.78;;;1.23;;
46000;SDS011;72226;48.272;11.180;2024-02-21T07:39:10;1.92;;;1.02;;
46000;SDS011;72226;48.272;11.180;2024-02-21T07:41:36;1.75;;;1.00;;
46000;SDS011;72226;48.272;11.180;2024-02-21T07:44:01;2.58;;;1.02;;
46000;SDS011;72226;48.272;11.180;2024-02-21T07:46:28;1.65;;;1.00;;
46000;SDS011;72226;48.272;11.180;2024-02-21T07:48:53;1.05;;;0.50;;
46000;SDS011;72226;48.272;11.180;2024-02-21T07:51:18;1.67;;;0.60;;
46000;SDS011;72226;48.272;11.180;2024-02-21T07:53:44;7.13;;;1.40;;
46000;SDS011;72226;48.272;11.180;2024-02-21T07:56:10;2.10;;;0.60;;
46000;SDS011;72226;48.272;11.180;2024-02-21T07:58:36;3.55;;;0.60;;
46000;SDS011;72226;48.272;11.180;2024-02-21T08:01:01;0.60;;;0.52;;
46000;SDS011;72226;48.272;11.180;2024-02-21T08:03:26;3.53;;;1.20;;
46000;SDS011;72226;48.272;11.180;2024-02-21T08:05:51;1.27;;;0.52;;
46000;SDS011;72226;48.272;11.180;2024-02-21T08:08:17;2.10;;;0.55;;
46000;SDS011;72226;48.272;11.180;2024-02-21T08:10:45;1.20;;;0.63;;
46000;SDS011;72226;48.272;11.180;2024-02-21T08:13:10;4.43;;;0.60;;
46000;SDS011;72226;48.272;11.180;2024-02-21T08:15:35;2.63;;;0.77;;
46000;SDS011;72226;48.272;11.180;2024-02-21T08:18:00;2.95;;;0.52;;
46000;SDS011;72226;48.272;11.180;2024-02-21T08:20:26;0.90;;;0.35;;
46000;SDS011;72226;48.272;11.180;2024-02-21T08:22:52;1.13;;;0.45;;
46000;SDS011;72226;48.272;11.180;2024-02-21T08:25:17;1.08;;;0.65;;
46000;SDS011;72226;48.272;11.180;2024-02-21T08:27:42;0.98;;;0.55;;
46000;SDS011;72226;48.272;11.180;2024-02-21T08:30:07;1.23;;;0.52;;
46000;SDS011;72226;48.272;11.180;2024-02-21T08:32:33;1.80;;;0.70;;
46000;SDS011;72226;48.272;11.180;2024-02-21T08:35:00;3.58;;;0.70;;
46000;SDS011;72226;48.272;11.180;2024-02-21T08:37:26;1.10;;;0.57;;
46000;SDS011;72226;48.272;11.180;2024-02-21T08:39:52;1.60;;;0.63;;
46000;SDS011;72226;48.272;11.180;2024-02-21T08:42:17;3.50;;;1.17;;
46000;SDS011;72226;48.272;11.180;2024-02-21T08:44:42;1.10;;;0.20;;
46000;SDS011;72226;48.272;11.180;2024-02-21T08:47:08;0.25;;;0.17;;
46000;SDS011;72226;48.272;11.180;2024-02-21T08:49:35;1.42;;;0.70;;
46000;SDS011;72226;48.272;11.180;2024-02-21T08:52:00;1.30;;;0.50;;
46000;SDS011;72226;48.272;11.180;2024-02-21T08:54:26;0.95;;;0.60;;
46000;SDS011;72226;48.272;11.180;2024-02-21T08:56:51;1.83;;;0.50;;
46000;SDS011;72226;48.272;11.180;2024-02-21T08:59:16;1.55;;;0.70;;
46000;SDS011;72226;48.272;11.180;2024-02-21T09:01:41;1.92;;;1.15;;
46000;SDS011;72226;48.272;11.180;2024-02-21T09:04:07;2.13;;;0.88;;
46000;SDS011;72226;48.272;11.180;2024-02-21T09:06:32;2.35;;;0.73;;
46000;SDS011;72226;48.272;11.180;2024-02-21T09:08:58;3.08;;;0.77;;
46000;SDS011;72226;48.272;11.180;2024-02-21T09:11:24;2.58;;;0.95;;
46000;SDS011;72226;48.272;11.180;2024-02-21T09:13:49;2.08;;;1.17;;
46000;SDS011;72226;48.272;11.180;2024-02-21T09:16:14;3.22;;;0.82;;
46000;SDS011;72226;48.272;11.180;2024-02-21T09:18:40;2.67;;;1.27;;
46000;SDS011;72226;48.272;11.180;2024-02-21T09:21:05;1.70;;;0.98;;
46000;SDS011;72226;48.272;11.180;2024-02-21T09:23:30;2.25;;;1.23;;
46000;SDS011;72226;48.272;11.180;2024-02-21T09:25:56;2.45;;;1.17;;
46000;SDS011;72226;48.272;11.180;2024-02-21T09:28:22;1.27;;;0.80;;
46000;SDS011;72226;48.272;11.180;2024-02-21T09:30:47;1.75;;;1.15;;
46000;SDS011;72226;48.272;11.180;2024-02-21T09:33:12;3.60;;;1.05;;
46000;SDS011;72226;48.272;11.180;2024-02-21T09:35:38;2.83;;;0.90;;
46000;SDS011;72226;48.272;11.180;2024-02-21T09:38:04;1.05;;;0.50;;
46000;SDS011;72226;48.272;11.180;2024-02-21T09:40:29;2.80;;;0.52;;
46000;SDS011;72226;48.272;11.180;2024-02-21T09:43:02;2.88;;;0.43;;
46000;SDS011;72226;48.272;11.180;2024-02-21T09:45:29;1.40;;;0.85;;
46000;SDS011;72226;48.272;11.180;2024-02-21T09:50:38;2.30;;;0.80;;
46000;SDS011;72226;48.272;11.180;2024-02-21T09:53:05;2.55;;;0.60;;
46000;SDS011;72226;48.272;11.180;2024-02-21T09:55:32;1.02;;;0.10;;
46000;SDS011;72226;48.272;11.180;2024-02-21T09:57:59;1.13;;;0.60;;
46000;SDS011;72226;48.272;11.180;2024-02-21T10:00:26;0.73;;;0.40;;
46000;SDS011;72226;48.272;11.180;2024-02-21T10:02:51;0.77;;;0.40;;
46000;SDS011;72226;48.272;11.180;2024-02-21T10:05:16;1.92;;;0.70;;
46000;SDS011;72226;48.272;11.180;2024-02-21T10:07:42;0.65;;;0.38;;
46000;SDS011;72226;48.272;11.180;2024-02-21T10:10:08;0.75;;;0.47;;
46000;SDS011;72226;48.272;11.180;2024-02-21T10:12:33;1.88;;;0.35;;
46000;SDS011;72226;48.272;11.180;2024-02-21T10:15:02;1.13;;;0.60;;
46000;SDS011;72226;48.272;11.180;2024-02-21T10:17:27;0.32;;;0.30;;
46000;SDS011;72226;48.272;11.180;2024-02-21T10:19:52;0.63;;;0.32;;
46000;SDS011;72226;48.272;11.180;2024-02-21T10:22:18;5.78;;;2.17;;
46000;SDS011;72226;48.272;11.180;2024-02-21T10:24:45;2.63;;;0.93;;
46000;SDS011;72226;48.272;11.180;2024-02-21T10:27:10;2.15;;;0.57;;
46000;SDS011;72226;48.272;11.180;2024-02-21T10:29:36;1.48;;;1.38;;
46000;SDS011;72226;48.272;11.180;2024-02-21T10:34:33;2.22;;;0.90;;
46000;SDS011;72226;48.272;11.180;2024-02-21T10:37:02;1.33;;;0.30;;
46000;SDS011;72226;48.272;11.180;2024-02-21T10:39:28;1.50;;;0.22;;
46000;SDS011;72226;48.272;11.180;2024-02-21T10:41:53;1.38;;;0.60;;
46000;SDS011;72226;48.272;11.180;2024-02-21T10:44:19;3.83;;;0.40;;
46000;SDS011;72226;48.272;11.180;2024-02-21T10:46:45;2.72;;;1.67;;
46000;SDS011;72226;48.272;11.180;2024-02-21T10:49:12;1.77;;;0.43;;
46000;SDS011;72226;48.272;11.180;2024-02-21T10:51:41;1.13;;;0.57;;
46000;SDS011;72226;48.272;11.180;2024-02-21T10:56:33;0.43;;;0.30;;
46000;SDS011;72226;48.272;11.180;2024-02-21T10:59:04;0.90;;;0.30;;
46000;SDS011;72226;48.272;11.180;2024-02-21T11:01:30;3.92;;;0.88;;
46000;SDS011;72226;48.272;11.180;2024-02-21T11:04:04;0.22;;;0.20;;
46000;SDS011;72226;48.272;11.180;2024-02-21T11:06:29;1.25;;;0.30;;
46000;SDS011;72226;48.272;11.180;2024-02-21T11:09:01;0.63;;;0.30;;
46000;SDS011;72226;48.272;11.180;2024-02-21T11:11:28;1.17;;;0.38;;
46000;SDS011;72226;48.272;11.180;2024-02-21T11:14:03;1.50;;;0.10;;
46000;SDS011;72226;48.272;11.180;2024-02-21T11:16:34;0.45;;;0.30;;
46000;SDS011;72226;48.272;11.180;2024-02-21T11:19:09;0.77;;;0.47;;
46000;SDS011;72226;48.272;11.180;2024-02-21T11:21:36;0.47;;;0.35;;
46000;SDS011;72226;48.272;11.180;2024-02-21T11:24:04;0.28;;;0.10;;
46000;SDS011;72226;48.272;11.180;2024-02-21T11:26:30;0.20;;;0.20;;
46000;SDS011;72226;48.272;11.180;2024-02-21T11:29:01;1.10;;;0.25;;
46000;SDS011;72226;48.272;11.180;2024-02-21T11:31:39;0.65;;;0.10;;
46000;SDS011;72226;48.272;11.180;2024-02-21T11:34:08;2.22;;;1.08;;
46000;SDS011;72226;48.272;11.180;2024-02-21T11:36:33;0.38;;;0.30;;
46000;SDS011;72226;48.272;11.180;2024-02-21T11:39:04;0.93;;;0.40;;
46000;SDS011;72226;48.272;11.180;2024-02-21T11:41:30;0.57;;;0.10;;
46000;SDS011;72226;48.272;11.180;2024-02-21T11:43:56;0.20;;;0.20;;
46000;SDS011;72226;48.272;11.180;2024-02-21T11:46:21;0.95;;;0.38;;
46000;SDS011;72226;48.272;11.180;2024-02-21T11:48:46;0.73;;;0.20;;
46000;SDS011;72226;48.272;11.180;2024-02-21T11:51:24;0.30;;;0.25;;
46000;SDS011;72226;48.272;11.180;2024-02-21T11:53:51;0.63;;;0.30;;
46000;SDS011;72226;48.272;11.180;2024-02-21T11:56:16;0.77;;;0.20;;
46000;SDS011;72226;48.272;11.180;2024-02-21T11:58:48;0.32;;;0.20;;
46000;SDS011;72226;48.272;11.180;2024-02-21T12:01:13;0.80;;;0.40;;
46000;SDS011;72226;48.272;11.180;2024-02-21T12:03:39;0.25;;;0.10;;
46000;SDS011;72226;48.272;11.180;2024-02-21T12:06:06;0.57;;;0.20;;
46000;SDS011;72226;48.272;11.180;2024-02-21T12:08:44;0.73;;;0.40;;
46000;SDS011;72226;48.272;11.180;2024-02-21T12:11:16;0.73;;;0.30;;
46000;SDS011;72226;48.272;11.180;2024-02-21T12:13:41;0.40;;;0.32;;
46000;SDS011;72226;48.272;11.180;2024-02-21T12:16:07;2.85;;;0.30;;
46000;SDS011;72226;48.272;11.180;2024-02-21T12:18:32;0.32;;;0.22;;
46000;SDS011;72226;48.272;11.180;2024-02-21T12:20:58;1.42;;;0.40;;
46000;SDS011;72226;48.272;11.180;2024-02-21T12:23:26;0.17;;;0.17;;
46000;SDS011;72226;48.272;11.180;2024-02-21T12:25:51;1.15;;;0.38;;
46000;SDS011;72226;48.272;11.180;2024-02-21T12:28:19;0.08;;;0.00;;
46000;SDS011;72226;48.272;11.180;2024-02-21T12:30:44;0.50;;;0.30;;
46000;SDS011;72226;48.272;11.180;2024-02-21T12:33:09;3.33;;;0.57;;
46000;SDS011;72226;48.272;11.180;2024-02-21T12:35:35;1.55;;;0.20;;
46000;SDS011;72226;48.272;11.180;2024-02-21T12:38:00;1.08;;;0.30;;
46000;SDS011;72226;48.272;11.180;2024-02-21T12:40:26;0.17;;;0.17;;
46000;SDS011;72226;48.272;11.180;2024-02-21T12:42:57;0.75;;;0.30;;
46000;SDS011;72226;48.272;11.180;2024-02-21T12:45:22;1.40;;;0.10;;
46000;SDS011;72226;48.272;11.180;2024-02-21T12:47:48;1.05;;;0.40;;
46000;SDS011;72226;48.272;11.180;2024-02-21T12:50:13;3.03;;;0.22;;
46000;SDS011;72226;48.272;11.180;2024-02-21T12:52:40;0.75;;;0.50;;
46000;SDS011;72226;48.272;11.180;2024-02-21T12:55:05;0.75;;;0.28;;
46000;SDS011;72226;48.272;11.180;2024-02-21T12:57:30;0.50;;;0.17;;
46000;SDS011;72226;48.272;11.180;2024-02-21T12:59:56;0.52;;;0.20;;
46000;SDS011;72226;48.272;11.180;2024-02-21T13:02:21;0.65;;;0.17;;
46000;SDS011;72226;48.272;11.180;2024-02-21T13:04:46;2.67;;;0.20;;
46000;SDS011;72226;48.272;11.180;2024-02-21T13:07:11;0.77;;;0.28;;
46000;SDS011;72226;48.272;11.180;2024-02-21T13:09:37;0.43;;;0.13;;
46000;SDS011;72226;48.272;11.180;2024-02-21T13:12:02;0.50;;;0.30;;
46000;SDS011;72226;48.272;11.180;2024-02-21T13:14:27;0.43;;;0.13;;
46000;SDS011;72226;48.272;11.180;2024-02-21T13:16:53;0.63;;;0.28;;
46000;SDS011;72226;48.272;11.180;2024-02-21T13:19:18;2.80;;;0.30;;
46000;SDS011;72226;48.272;11.180;2024-02-21T13:21:43;0.65;;;0.50;;
46000;SDS011;72226;48.272;11.180;2024-02-21T13:24:08;1.00;;;0.40;;
46000;SDS011;72226;48.272;11.180;2024-02-21T13:26:33;0.55;;;0.30;;
46000;SDS011;72226;48.272;11.180;2024-02-21T13:28:59;0.10;;;0.10;;
46000;SDS011;72226;48.272;11.180;2024-02-21T13:31:24;1.30;;;0.38;;
46000;SDS011;72226;48.272;11.180;2024-02-21T13:33:50;0.55;;;0.10;;
46000;SDS011;72226;48.272;11.180;2024-02-21T13:36:15;0.25;;;0.10;;
46000;SDS011;72226;48.272;11.180;2024-02-21T13:38:41;0.40;;;0.30;;
46000;SDS011;72226;48.272;11.180;2024-02-21T13:41:06;0.70;;;0.15;;
46000;SDS011;72226;48.272;11.180;2024-02-21T13:43:32;0.80;;;0.20;;
46000;SDS011;72226;48.272;11.180;2024-02-21T13:45:57;0.95;;;0.40;;
46000;SDS011;72226;48.272;11.180;2024-02-21T13:48:23;2.15;;;0.28;;
46000;SDS011;72226;48.272;11.180;2024-02-21T13:50:49;0.10;;;0.10;;
46000;SDS011;72226;48.272;11.180;2024-02-21T13:53:14;1.05;;;0.20;;
46000;SDS011;72226;48.272;11.180;2024-02-21T13:55:40;0.20;;;0.20;;
46000;SDS011;72226;48.272;11.180;2024-02-21T13:58:05;0.50;;;0.20;;
46000;SDS011;72226;48.272;11.180;2024-02-21T14:00:31;0.95;;;0.30;;
46000;SDS011;72226;48.272;11.180;2024-02-21T14:02:58;0.75;;;0.20;;
46000;SDS011;72226;48.272;11.180;2024-02-21T14:05:24;1.35;;;0.10;;
46000;SDS011;72226;48.272;11.180;2024-02-21T14:07:49;1.25;;;0.32;;
46000;SDS011;72226;48.272;11.180;2024-02-21T14:10:14;0.98;;;0.20;;
46000;SDS011;72226;48.272;11.180;2024-02-21T14:12:39;0.10;;;0.10;;
46000;SDS011;72226;48.272;11.180;2024-02-21T14:15:05;1.20;;;0.15;;
46000;SDS011;72226;48.272;11.180;2024-02-21T14:17:30;0.10;;;0.10;;
46000;SDS011;72226;48.272;11.180;2024-02-21T14:19:55;1.05;;;0.47;;
46000;SDS011;72226;48.272;11.180;2024-02-21T14:22:21;1.30;;;0.28;;
46000;SDS011;72226;48.272;11.180;2024-02-21T14:24:46;0.17;;;0.10;;
46000;SDS011;72226;48.272;11.180;2024-02-21T14:27:11;0.85;;;0.15;;
46000;SDS011;72226;48.272;11.180;2024-02-21T14:29:37;1.05;;;0.08;;
46000;SDS011;72226;48.272;11.180;2024-02-21T14:32:02;1.20;;;0.08;;